Time;durP1;ratioP1;P1;durP2;ratioP2;P2;SDS_P1;SDS_P2;PMS_P1;PMS_P2;Temp;Humidity;BMP_temperature;BMP_pressure;BME280_temperature;BME280_humidity;BME280_pressure;Samples;Min_cycle;Max_cycle;Signal;HPM_P1;HPM_P2
2021/03/01 00:00:40;;;;;;;10.37;6.47;;;;;;;1.94;80.93;100171.88;6131967;22;102819;-83
2021/03/01 00:03:08;;;;;;;12.60;9.07;;;;;;;1.89;81.11;100172.84;6133701;22;103109;-83
2021/03/01 00:05:35;;;;;;;11.57;8.13;;;;;;;1.86;81.98;100175.47;6135138;22;104353;-84
2021/03/01 00:08:03;;;;;;;10.00;7.40;;;;;;;1.97;81.13;100170.97;6134866;22;104591;-84
2021/03/01 00:10:31;;;;;;;12.37;9.67;;;;;;;1.89;81.42;100180.66;6134615;22;103003;-83
2021/03/01 00:12:57;;;;;;;12.83;8.93;;;;;;;1.88;81.08;100185.00;6134712;22;104251;-83
2021/03/01 00:15:28;;;;;;;10.70;7.90;;;;;;;1.85;81.42;100174.66;6134932;22;104132;-84
2021/03/01 00:17:55;;;;;;;17.50;8.97;;;;;;;1.94;80.22;100173.66;6134326;22;103758;-83
2021/03/01 00:20:22;;;;;;;12.37;9.47;;;;;;;1.65;81.87;100177.53;6134447;22;102789;-84
2021/03/01 00:22:49;;;;;;;14.63;8.80;;;;;;;1.59;82.46;100177.59;6134915;22;102650;-83
2021/03/01 00:25:16;;;;;;;13.73;9.00;;;;;;;1.65;81.95;100182.75;6135035;22;104122;-83
2021/03/01 00:27:44;;;;;;;10.93;8.00;;;;;;;1.70;82.06;100178.31;6134569;22;103813;-83
2021/03/01 00:30:12;;;;;;;11.93;9.13;;;;;;;1.66;81.79;100184.44;6133724;22;103234;-83
2021/03/01 00:32:40;;;;;;;9.97;7.83;;;;;;;1.58;82.73;100186.28;6134820;22;103268;-83
2021/03/01 00:35:09;;;;;;;11.07;8.20;;;;;;;1.56;82.44;100181.97;6134228;22;106028;-83
2021/03/01 00:37:36;;;;;;;11.30;7.57;;;;;;;1.57;82.37;100184.56;6136072;22;109345;-83
2021/03/01 00:40:06;;;;;;;13.17;9.40;;;;;;;1.50;82.21;100176.84;6136724;22;102777;-83
2021/03/01 00:42:33;;;;;;;10.33;7.17;;;;;;;1.42;83.06;100187.38;6109298;22;102969;-83
2021/03/01 00:45:00;;;;;;;12.30;6.77;;;;;;;1.58;82.20;100183.69;6159690;22;105214;-83
2021/03/01 00:47:27;;;;;;;11.80;8.27;;;;;;;1.59;81.21;100187.16;6134865;22;104304;-84
2021/03/01 00:49:55;;;;;;;11.47;8.57;;;;;;;1.39;82.52;100184.78;6135851;22;102442;-83
2021/03/01 00:52:22;;;;;;;12.43;9.90;;;;;;;1.25;82.93;100185.84;6135502;22;102881;-83
2021/03/01 00:54:49;;;;;;;13.80;9.17;;;;;;;1.15;84.14;100180.72;6084185;22;106462;-83
2021/03/01 00:57:16;;;;;;;12.73;9.30;;;;;;;1.24;83.05;100179.75;6109439;22;103649;-83
2021/03/01 00:59:43;;;;;;;11.73;8.17;;;;;;;1.23;82.45;100180.66;6136743;22;102502;-83
2021/03/01 01:02:11;;;;;;;14.33;10.97;;;;;;;1.03;82.75;100174.81;6109352;22;103106;-83
2021/03/01 01:04:50;;;;;;;14.53;11.10;;;;;;;0.69;85.85;100184.69;6109053;22;104877;-83
2021/03/01 01:07:19;;;;;;;14.23;10.77;;;;;;;0.77;85.86;100182.88;6111439;22;103023;-83
2021/03/01 01:09:46;;;;;;;10.27;8.27;;;;;;;0.99;85.06;100180.91;6137551;22;102840;-84
2021/03/01 01:12:13;;;;;;;13.10;10.50;;;;;;;0.97;83.37;100180.06;6139773;22;103347;-83
2021/03/01 01:14:41;;;;;;;12.27;9.07;;;;;;;1.08;83.39;100180.81;6138844;22;103670;-83
2021/03/01 01:17:08;;;;;;;12.87;9.50;;;;;;;1.04;83.01;100177.38;6139138;22;108175;-83
2021/03/01 01:19:35;;;;;;;13.07;10.43;;;;;;;1.00;82.90;100186.09;6140337;22;102849;-83
2021/03/01 01:22:02;;;;;;;15.17;10.93;;;;;;;0.69;85.40;100183.81;6141060;22;102876;-84
2021/03/01 01:24:30;;;;;;;15.23;10.80;;;;;;;0.80;85.08;100179.38;6140913;22;104111;-84
2021/03/01 01:26:57;;;;;;;13.77;11.47;;;;;;;0.65;85.10;100177.78;6139971;22;104398;-84
2021/03/01 01:29:24;;;;;;;15.00;10.63;;;;;;;0.39;86.92;100179.75;6140672;22;102447;-84
2021/03/01 01:31:51;;;;;;;13.87;9.77;;;;;;;0.46;87.23;100182.28;6138132;22;103072;-84
2021/03/01 01:34:18;;;;;;;14.33;10.47;;;;;;;0.59;86.72;100178.69;6137530;22;104333;-84
2021/03/01 01:36:45;;;;;;;16.13;11.30;;;;;;;0.20;87.90;100184.22;6138548;22;102504;-84
2021/03/01 01:39:13;;;;;;;13.93;11.13;;;;;;;-0.09;89.86;100180.97;6138537;22;105314;-84
2021/03/01 01:41:41;;;;;;;14.73;11.17;;;;;;;0.04;90.29;100181.72;6138580;22;103131;-84
2021/03/01 01:44:08;;;;;;;15.23;12.27;;;;;;;0.27;88.84;100183.31;6138535;22;104428;-84
2021/03/01 01:46:38;;;;;;;16.10;11.23;;;;;;;0.44;87.95;100178.84;6138694;22;103561;-85
2021/03/01 01:49:06;;;;;;;10.37;8.37;;;;;;;0.58;87.38;100176.97;6112134;22;103119;-84
2021/03/01 01:51:33;;;;;;;13.33;10.13;;;;;;;0.79;85.79;100175.03;6138754;22;103025;-84
2021/03/01 01:54:00;;;;;;;13.67;11.27;;;;;;;0.65;85.09;100174.34;6133770;22;104001;-84
2021/03/01 01:56:28;;;;;;;12.03;8.77;;;;;;;0.71;85.20;100174.25;6161784;22;104491;-84
2021/03/01 01:58:56;;;;;;;10.63;7.80;;;;;;;0.83;84.35;100171.53;6137390;22;102972;-85
2021/03/01 02:01:23;;;;;;;11.80;8.77;;;;;;;0.85;83.20;100164.56;6136043;22;103281;-84
2021/03/01 02:03:56;;;;;;;14.57;10.77;;;;;;;0.75;83.24;100168.16;6138024;22;103967;-84
2021/03/01 02:06:37;;;;;;;15.93;11.23;;;;;;;0.42;84.66;100169.34;6138282;22;104311;-84
2021/03/01 02:09:22;;;;;;;15.37;11.27;;;;;;;0.43;84.55;100160.63;6111411;22;102656;-85
2021/03/01 02:11:57;;;;;;;15.17;10.90;;;;;;;0.45;84.54;100158.91;6138699;22;102914;-84
2021/03/01 02:14:37;;;;;;;11.50;8.63;;;;;;;0.49;84.52;100156.25;6137892;22;104372;-84
2021/03/01 02:17:04;;;;;;;15.00;10.73;;;;;;;0.61;83.78;100151.81;6138102;22;104113;-84
2021/03/01 02:19:35;;;;;;;15.33;10.80;;;;;;;0.63;82.52;100147.44;6111152;22;102979;-84
2021/03/01 02:22:03;;;;;;;14.67;11.40;;;;;;;0.40;84.24;100145.06;6138282;22;102872;-85
2021/03/01 02:24:34;;;;;;;14.57;11.73;;;;;;;0.06;86.00;100149.66;6137685;22;103957;-84
2021/03/01 02:27:01;;;;;;;12.23;9.47;;;;;;;0.19;86.12;100151.31;6137867;22;103667;-85
2021/03/01 02:29:29;;;;;;;16.30;11.47;;;;;;;0.24;85.90;100157.34;6112166;22;102931;-85
2021/03/01 02:32:00;;;;;;;13.57;10.93;;;;;;;0.19;85.63;100150.44;6111671;22;103131;-84
2021/03/01 02:34:32;;;;;;;13.77;10.70;;;;;;;0.21;86.33;100154.75;6137488;22;104163;-85
2021/03/01 02:37:02;;;;;;;13.80;10.33;;;;;;;0.34;85.54;100145.97;6110960;22;103668;-85
2021/03/01 02:39:33;;;;;;;13.63;10.10;;;;;;;0.24;85.86;100154.72;6138777;22;102454;-85
2021/03/01 02:42:02;;;;;;;12.90;10.23;;;;;;;0.25;85.79;100147.81;6138292;22;103087;-84
2021/03/01 02:44:30;;;;;;;11.90;9.87;;;;;;;0.11;86.24;100147.91;6138177;22;104004;-85
2021/03/01 02:46:59;;;;;;;13.00;8.13;;;;;;;0.27;86.49;100149.50;6137880;22;106475;-85
2021/03/01 02:49:27;;;;;;;16.57;10.93;;;;;;;0.24;85.28;100151.25;6138025;22;102511;-85
2021/03/01 02:51:56;;;;;;;14.80;11.00;;;;;;;-0.19;88.14;100148.09;6137408;22;102682;-85
2021/03/01 02:54:24;;;;;;;17.70;11.37;;;;;;;-0.27;89.72;100148.16;6110170;22;105386;-85
2021/03/01 02:56:53;;;;;;;15.60;10.80;;;;;;;-0.33;90.10;100149.91;6137019;22;103028;-85
2021/03/01 02:59:23;;;;;;;13.97;10.30;;;;;;;-0.40;90.83;100140.44;6111782;22;102947;-84
2021/03/01 03:01:51;;;;;;;16.50;10.80;;;;;;;-0.29;89.55;100147.31;6135166;22;103093;-85
2021/03/01 03:04:20;;;;;;;11.57;8.47;;;;;;;-0.15;89.42;100147.22;6111364;22;104068;-84
2021/03/01 03:06:48;;;;;;;9.60;7.40;;;;;;;0.06;87.63;100147.06;6137896;22;103031;-84
2021/03/01 03:09:16;;;;;;;9.67;8.00;;;;;;;0.18;86.26;100144.38;6137927;22;102936;-85
2021/03/01 03:11:44;;;;;;;10.77;8.27;;;;;;;0.14;85.36;100141.81;6137907;22;103077;-86
2021/03/01 03:14:19;;;;;;;12.13;9.57;;;;;;;0.02;85.78;100139.31;6137339;22;104375;-85
2021/03/01 03:16:47;;;;;;;13.33;9.77;;;;;;;-0.10;86.04;100137.66;6137486;22;103801;-85
2021/03/01 03:19:14;;;;;;;11.37;8.50;;;;;;;0.00;86.03;100132.38;6111695;22;102964;-85
2021/03/01 03:21:41;;;;;;;9.43;7.73;;;;;;;0.10;84.89;100135.78;6138186;22;102711;-85
2021/03/01 03:24:08;;;;;;;10.13;7.90;;;;;;;0.19;84.02;100134.84;6137997;22;104273;-85
2021/03/01 03:26:36;;;;;;;9.77;7.00;;;;;;;0.05;84.29;100132.38;6111035;22;106823;-85
2021/03/01 03:29:03;;;;;;;10.03;8.37;;;;;;;0.14;84.64;100137.47;6110228;22;102623;-85
2021/03/01 03:31:31;;;;;;;13.43;10.17;;;;;;;0.00;84.14;100134.13;6139052;22;102920;-85
2021/03/01 03:33:59;;;;;;;15.17;10.60;;;;;;;-0.46;86.48;100137.88;6138021;22;103806;-85
2021/03/01 03:36:29;;;;;;;16.90;10.83;;;;;;;-0.46;87.46;100138.75;6110787;22;104501;-84
2021/03/01 03:38:59;;;;;;;14.30;10.23;;;;;;;-0.29;87.00;100146.44;6137332;22;102815;-84
2021/03/01 03:41:28;;;;;;;13.00;10.57;;;;;;;-0.72;88.31;100146.66;6138184;22;102756;-85
2021/03/01 03:43:56;;;;;;;14.60;9.77;;;;;;;-0.80;89.97;100148.44;6138154;22;104800;-84
2021/03/01 03:46:26;;;;;;;12.17;9.00;;;;;;;-0.65;89.95;100145.78;6137222;22;103087;-85
2021/03/01 03:48:55;;;;;;;12.10;8.80;;;;;;;-0.55;89.15;100140.53;6137245;22;102929;-85
2021/03/01 03:51:25;;;;;;;11.83;8.47;;;;;;;-0.47;88.83;100134.41;6137454;22;103057;-85
2021/03/01 03:53:57;;;;;;;13.17;10.23;;;;;;;-0.42;87.84;100140.44;6136886;22;103689;-85
2021/03/01 03:56:27;;;;;;;11.00;7.90;;;;;;;-0.33;87.68;100135.19;6162396;22;104047;-85
2021/03/01 03:58:59;;;;;;;12.83;9.20;;;;;;;-0.28;86.93;100137.78;6137807;22;103086;-85
2021/03/01 04:01:29;;;;;;;14.77;9.83;;;;;;;-0.37;87.46;100136.13;6137357;22;103011;-85
2021/03/01 04:04:00;;;;;;;10.83;8.00;;;;;;;-0.37;88.11;100136.13;6136347;22;107770;-85
2021/03/01 04:06:27;;;;;;;10.90;7.30;;;;;;;-0.25;87.60;100142.94;6137783;22;103843;-85
2021/03/01 04:08:56;;;;;;;10.80;7.00;;;;;;;-0.13;86.49;100127.28;6137436;22;102701;-84
2021/03/01 04:11:24;;;;;;;12.20;7.40;;;;;;;-0.09;85.19;100134.19;6162616;22;102772;-85
2021/03/01 04:13:55;;;;;;;13.10;10.30;;;;;;;-0.41;85.74;100139.59;6136859;22;108670;-85
2021/03/01 04:16:23;;;;;;;10.57;8.50;;;;;;;-0.41;87.32;100131.78;6136725;22;103247;-85
2021/03/01 04:18:55;;;;;;;14.17;11.23;;;;;;;-0.38;85.93;100136.09;6136586;22;102933;-89
2021/03/01 04:21:26;;;;;;;11.63;7.57;;;;;;;-0.46;86.84;100135.28;6137624;22;103003;-89
2021/03/01 04:23:54;;;;;;;9.80;7.83;;;;;;;-0.47;86.76;100126.63;6160854;22;105600;-88
2021/03/01 04:26:22;;;;;;;10.73;8.20;;;;;;;-0.41;87.01;100133.53;6137379;22;103898;-86
2021/03/01 04:28:50;;;;;;;12.97;9.20;;;;;;;-0.31;86.02;100137.81;6136858;22;103231;-90
2021/03/01 04:31:19;;;;;;;13.33;10.23;;;;;;;-0.41;85.65;100131.78;6136931;22;103099;-83
2021/03/01 04:33:48;;;;;;;13.03;10.10;;;;;;;-0.71;87.88;100131.97;6136273;22;104068;-81
2021/03/01 04:36:17;;;;;;;12.20;9.70;;;;;;;-0.59;88.23;100137.94;6135602;22;104142;-83
2021/03/01 04:38:45;;;;;;;17.50;11.17;;;;;;;-0.69;88.08;100138.88;6136062;22;103008;-81
2021/03/01 04:41:13;;;;;;;13.93;11.03;;;;;;;-0.87;90.37;100141.53;6112438;22;103040;-77
2021/03/01 04:43:42;;;;;;;12.37;9.67;;;;;;;-0.83;89.64;100143.25;6139654;22;103950;-85
2021/03/01 04:46:10;;;;;;;12.70;10.13;;;;;;;-0.92;90.49;100134.63;6112425;22;105425;-80
2021/03/01 04:48:39;;;;;;;13.33;10.10;;;;;;;-0.91;90.39;100144.16;6137780;22;103078;-82
2021/03/01 04:51:07;;;;;;;13.53;9.77;;;;;;;-0.67;90.48;100150.09;6136395;22;103272;-89
2021/03/01 04:53:35;;;;;;;12.10;8.10;;;;;;;-0.65;89.02;100144.91;6133951;22;105102;-87
2021/03/01 04:56:05;;;;;;;9.93;8.50;;;;;;;-0.54;87.82;100150.03;6136577;22;104673;-89
2021/03/01 04:58:36;;;;;;;13.27;10.27;;;;;;;-0.72;87.55;100146.66;6136350;22;102980;-84
2021/03/01 05:01:06;;;;;;;13.27;8.73;;;;;;;-0.98;89.65;100143.28;6135488;22;106267;-84
2021/03/01 05:03:34;;;;;;;13.40;10.30;;;;;;;-0.87;90.05;100145.88;6159024;22;104329;-89
2021/03/01 05:06:02;;;;;;;12.10;9.60;;;;;;;-0.79;90.06;100150.16;6109594;22;107477;-86
2021/03/01 05:08:30;;;;;;;11.20;7.57;;;;;;;-0.68;89.20;100148.38;6135356;22;102979;-84
2021/03/01 05:10:57;;;;;;;11.70;8.63;;;;;;;-0.67;87.84;100142.31;6135735;22;102991;-86
2021/03/01 05:13:25;;;;;;;9.60;7.73;;;;;;;-0.64;87.67;100150.09;6136767;22;103810;-89
2021/03/01 05:15:52;;;;;;;14.27;10.07;;;;;;;-0.86;87.05;100147.59;6137225;22;103772;-88
2021/03/01 05:18:19;;;;;;;15.50;10.47;;;;;;;-1.11;90.39;100154.59;6135624;22;103205;-86
2021/03/01 05:20:46;;;;;;;15.00;10.30;;;;;;;-1.09;91.64;100154.56;6135801;22;102964;-86
2021/03/01 05:23:13;;;;;;;14.30;10.93;;;;;;;-1.12;91.09;100150.25;6136203;22;103162;-73
2021/03/01 05:25:40;;;;;;;12.97;10.20;;;;;;;-1.18;92.59;100150.28;6136887;22;103906;-90
2021/03/01 05:28:08;;;;;;;9.73;7.80;;;;;;;-1.05;92.60;100149.38;6136040;22;103071;-88
2021/03/01 05:30:36;;;;;;;14.87;10.53;;;;;;;-1.11;91.20;100154.59;6160886;22;103084;-89
2021/03/01 05:33:06;;;;;;;11.37;9.03;;;;;;;-0.97;91.43;100157.13;6109828;22;109538;-89
2021/03/01 05:35:33;;;;;;;12.27;9.40;;;;;;;-0.87;90.06;100151.06;6136460;22;103999;-86
2021/03/01 05:38:00;;;;;;;11.33;8.53;;;;;;;-1.05;89.96;100157.16;6137499;22;102852;-90
2021/03/01 05:40:27;;;;;;;10.97;7.10;;;;;;;-0.85;90.34;100150.19;6160732;22;103121;-89
2021/03/01 05:42:56;;;;;;;10.73;8.10;;;;;;;-0.71;88.97;100156.19;6109377;22;104667;-88
2021/03/01 05:45:24;;;;;;;14.60;11.07;;;;;;;-1.12;88.96;100158.03;6138299;22;104007;-90
2021/03/01 05:47:52;;;;;;;12.50;8.83;;;;;;;-0.97;90.68;100147.63;6137419;22;102490;-87
2021/03/01 05:50:23;;;;;;;10.17;7.40;;;;;;;-0.81;90.18;100151.00;6136753;22;102828;-89
2021/03/01 05:52:58;;;;;;;13.30;9.80;;;;;;;-0.80;87.98;100145.84;6136018;22;109453;-89
2021/03/01 05:55:26;;;;;;;13.70;9.53;;;;;;;-0.98;88.87;100153.66;6137014;22;104965;-88
2021/03/01 05:57:54;;;;;;;13.53;9.83;;;;;;;-1.12;89.92;100152.84;6111239;22;102894;-89
2021/03/01 06:00:23;;;;;;;16.37;10.57;;;;;;;-1.14;89.55;100149.41;6138086;22;102870;-91
2021/03/01 06:02:51;;;;;;;11.77;8.37;;;;;;;-1.07;90.66;100148.53;6136694;22;104407;-90
2021/03/01 06:05:19;;;;;;;13.07;9.93;;;;;;;-1.04;88.62;100161.50;6109560;22;105652;-90
2021/03/01 06:07:48;;;;;;;13.77;10.00;;;;;;;-1.10;90.12;100168.41;6135186;22;107540;-90
2021/03/01 06:10:14;;;;;;;12.03;9.57;;;;;;;-1.17;90.64;100159.78;6135864;22;102975;-87
2021/03/01 06:12:42;;;;;;;10.83;8.40;;;;;;;-1.17;92.80;100165.84;6138007;22;103140;-87
2021/03/01 06:15:10;;;;;;;14.43;10.27;;;;;;;-0.96;91.92;100172.72;6137559;22;103100;-89
2021/03/01 06:17:39;;;;;;;14.47;10.73;;;;;;;-1.16;90.71;100177.09;6158631;22;102893;-87
2021/03/01 06:20:10;;;;;;;16.80;11.20;;;;;;;-1.28;91.75;100182.28;6129815;22;103038;-85
2021/03/01 06:22:42;;;;;;;11.10;8.57;;;;;;;-1.17;92.01;100177.94;6107215;22;103324;-87
2021/03/01 06:25:12;;;;;;;13.87;9.70;;;;;;;-1.03;91.72;100178.78;6135701;22;104360;-90
2021/03/01 06:27:50;;;;;;;15.53;10.53;;;;;;;-0.92;90.78;100181.31;6132427;22;102955;-85
2021/03/01 06:30:20;;;;;;;13.80;10.00;;;;;;;-0.82;90.13;100181.31;6133257;22;103095;-83
2021/03/01 06:33:09;;;;;;;15.00;10.97;;;;;;;-0.83;89.39;100184.78;6132330;22;103880;-85
2021/03/01 06:35:41;;;;;;;13.37;9.90;;;;;;;-0.90;91.97;100185.63;6132328;22;103975;-82
2021/03/01 06:38:16;;;;;;;14.30;10.90;;;;;;;-0.86;90.68;100182.19;6132489;22;103149;-82
2021/03/01 06:40:44;;;;;;;18.23;11.47;;;;;;;-0.99;93.28;100183.09;6132873;22;103049;-84
2021/03/01 06:43:12;;;;;;;15.37;12.07;;;;;;;-0.99;93.72;100188.28;6132523;22;104486;-82
2021/03/01 06:45:40;;;;;;;15.10;11.70;;;;;;;-1.11;94.33;100193.50;6132279;22;103390;-81
2021/03/01 06:48:08;;;;;;;16.87;10.60;;;;;;;-0.93;94.53;100183.09;6133129;22;103204;-80
2021/03/01 06:50:41;;;;;;;11.53;8.33;;;;;;;-0.58;93.52;100185.53;6133798;22;103117;-86
2021/03/01 06:53:16;;;;;;;13.20;9.10;;;;;;;-0.32;91.29;100193.22;6105312;22;106591;-86
2021/03/01 06:55:57;;;;;;;13.47;9.67;;;;;;;-0.21;89.62;100192.28;6132630;22;104184;-85
2021/03/01 06:58:27;;;;;;;11.97;8.40;;;;;;;-0.10;89.77;100182.69;6129984;22;105565;-86
2021/03/01 07:01:04;;;;;;;9.33;7.53;;;;;;;-0.01;88.33;100169.66;6133074;22;103146;-88
2021/03/01 07:03:42;;;;;;;10.90;8.80;;;;;;;0.22;86.96;100192.03;5125843;27;103002;-83
2021/03/01 07:06:10;;;;;;;12.70;9.13;;;;;;;0.31;86.67;100191.97;5102681;27;102935;-81
2021/03/01 07:08:48;;;;;;;10.17;7.63;;;;;;;0.47;85.43;100191.81;5093558;27;104191;-81
2021/03/01 07:11:23;;;;;;;16.83;11.20;;;;;;;0.56;84.22;100194.31;5101516;27;103829;-83
2021/03/01 07:13:53;;;;;;;12.03;8.53;;;;;;;0.74;84.57;100197.63;5067678;27;103550;-80
2021/03/01 07:16:21;;;;;;;13.43;8.90;;;;;;;0.91;84.11;100195.75;5095292;27;103202;-85
2021/03/01 07:18:50;;;;;;;12.97;9.63;;;;;;;1.13;83.46;100192.03;5117608;27;103886;-85
2021/03/01 07:21:19;;;;;;;10.43;7.77;;;;;;;1.41;83.22;100193.44;5108706;27;104253;-85
2021/03/01 07:23:50;;;;;;;13.53;10.73;;;;;;;1.35;82.47;100193.50;5110645;27;103127;-86
2021/03/01 07:26:24;;;;;;;15.43;10.53;;;;;;;1.23;84.34;100198.88;5103477;27;103621;-85
2021/03/01 07:28:55;;;;;;;15.57;10.27;;;;;;;1.24;85.50;100204.94;5120962;27;104458;-85
2021/03/01 07:31:26;;;;;;;16.97;11.70;;;;;;;1.11;86.56;100204.22;5104723;27;103423;-85
2021/03/01 07:33:55;;;;;;;13.10;9.13;;;;;;;1.59;85.54;100202.78;5108693;27;103160;-85
2021/03/01 07:36:22;;;;;;;11.90;10.13;;;;;;;1.29;84.67;100198.81;5104041;27;102963;-85
2021/03/01 07:38:52;;;;;;;13.03;10.50;;;;;;;1.47;84.58;100195.97;5098064;27;104004;-85
2021/03/01 07:41:20;;;;;;;15.47;10.30;;;;;;;2.16;83.60;100196.75;5113424;27;103789;-85
2021/03/01 07:43:47;;;;;;;11.87;9.77;;;;;;;2.19;82.91;100203.69;5109472;27;102869;-85
2021/03/01 07:46:14;;;;;;;13.77;8.93;;;;;;;2.74;81.64;100190.63;5113223;27;103307;-85
2021/03/01 07:48:43;;;;;;;14.53;9.73;;;;;;;2.92;77.81;100185.94;5102353;27;104432;-85
2021/03/01 07:51:12;;;;;;;12.73;8.63;;;;;;;3.44;77.98;100185.81;5113411;27;103683;-85
2021/03/01 07:53:49;;;;;;;15.53;9.70;;;;;;;3.79;74.72;100181.59;5104525;27;103483;-84
2021/03/01 07:56:50;;;;;;;14.13;9.93;;;;;;;3.79;75.98;100192.06;5094457;27;103400;-84
2021/03/01 07:59:31;;;;;;;12.43;8.90;;;;;;;4.42;74.29;100187.09;5089091;27;103486;-85
2021/03/01 08:02:16;;;;;;;15.17;10.20;;;;;;;4.91;72.98;100190.19;5088703;27;105670;-84
2021/03/01 08:04:44;;;;;;;12.77;9.90;;;;;;;4.89;72.61;100193.75;5116997;27;103227;-84
2021/03/01 08:07:12;;;;;;;13.03;9.83;;;;;;;4.48;73.61;100194.81;5099209;27;106050;-87
2021/03/01 08:09:51;;;;;;;11.50;9.20;;;;;;;4.72;73.30;100194.19;5108018;27;104574;-85
2021/03/01 08:12:57;;;;;;;15.57;10.63;;;;;;;4.51;74.39;100198.22;5108170;27;104170;-84
2021/03/01 08:15:27;;;;;;;14.57;10.73;;;;;;;4.22;74.00;100197.16;5103811;27;102999;-85
2021/03/01 08:17:56;;;;;;;11.10;9.13;;;;;;;4.76;74.71;100193.22;5104760;27;102786;-84
2021/03/01 08:20:44;;;;;;;14.20;10.77;;;;;;;5.22;74.07;100191.13;5072445;27;107457;-85
2021/03/01 08:23:21;;;;;;;12.37;9.60;;;;;;;5.85;70.28;100187.59;5093032;27;104758;-84
2021/03/01 08:26:04;;;;;;;14.53;10.90;;;;;;;5.86;70.20;100188.47;5094852;27;102564;-85
2021/03/01 08:28:54;;;;;;;13.47;10.87;;;;;;;4.56;72.64;100187.63;5100578;27;103021;-85
2021/03/01 08:31:33;;;;;;;12.27;10.07;;;;;;;5.49;70.37;100192.13;5097369;27;103879;-85
2021/03/01 08:34:33;;;;;;;12.27;10.33;;;;;;;4.78;69.87;100188.81;5098870;27;103866;-86
2021/03/01 08:37:02;;;;;;;12.53;10.00;;;;;;;5.26;71.79;100192.75;5084667;27;103512;-86
2021/03/01 08:40:00;;;;;;;14.17;10.60;;;;;;;5.68;69.59;100200.31;5085695;27;104170;-86
2021/03/01 08:42:48;;;;;;;11.03;9.83;;;;;;;6.75;66.68;100190.84;5104756;27;103076;-85
2021/03/01 08:45:40;;;;;;;11.80;9.60;;;;;;;6.78;65.86;100183.75;5099041;27;104507;-86
2021/03/01 08:48:19;;;;;;;10.97;9.03;;;;;;;6.59;66.96;100187.88;5096266;27;103040;-85
2021/03/01 08:50:48;;;;;;;13.80;10.63;;;;;;;6.20;67.58;100184.75;5095968;27;103950;-85
2021/03/01 08:53:25;;;;;;;14.57;10.77;;;;;;;7.02;67.03;100176.78;5092591;27;105388;-85
2021/03/01 08:55:54;;;;;;;14.03;10.90;;;;;;;6.96;65.85;100177.00;5079636;27;106546;-86
2021/03/01 08:58:22;;;;;;;12.70;10.80;;;;;;;7.48;64.31;100174.25;5097345;27;104096;-85
2021/03/01 09:00:52;;;;;;;10.63;9.30;;;;;;;8.02;65.25;100168.69;5097263;27;102937;-85
2021/03/01 09:03:29;;;;;;;11.83;9.93;;;;;;;7.96;63.23;100168.91;5086191;27;103382;-85
2021/03/01 09:06:08;;;;;;;14.47;9.73;;;;;;;7.83;64.44;100162.38;5097422;27;104057;-85
2021/03/01 09:08:38;;;;;;;14.03;10.43;;;;;;;8.02;62.79;100168.69;5099428;27;103237;-86
2021/03/01 09:11:12;;;;;;;11.03;9.17;;;;;;;8.60;63.62;100166.34;5098576;27;103066;-84
2021/03/01 09:13:42;;;;;;;11.00;9.53;;;;;;;8.87;62.77;100169.63;5094672;27;104775;-85
2021/03/01 09:16:11;;;;;;;9.97;8.97;;;;;;;8.84;59.80;100162.72;5094509;27;108987;-86
2021/03/01 09:18:40;;;;;;;10.27;9.17;;;;;;;9.20;59.00;100162.91;5094301;27;102925;-85
2021/03/01 09:21:08;;;;;;;11.20;9.70;;;;;;;9.03;57.40;100160.16;5095986;27;103042;-84
2021/03/01 09:23:38;;;;;;;13.13;9.80;;;;;;;9.21;59.99;100161.97;5092875;27;104383;-85
2021/03/01 09:26:09;;;;;;;13.77;9.67;;;;;;;8.95;59.71;100159.63;5078118;27;105383;-86
2021/03/01 09:28:37;;;;;;;11.00;9.73;;;;;;;9.31;58.59;100163.31;5097758;27;103192;-82
2021/03/01 09:31:17;;;;;;;11.47;10.10;;;;;;;9.19;59.59;100162.06;5083328;27;103269;-85
2021/03/01 09:33:46;;;;;;;9.73;8.73;;;;;;;10.20;58.86;100156.53;5096476;27;103114;-86
2021/03/01 09:36:14;;;;;;;11.27;10.07;;;;;;;10.23;57.29;100148.47;5097839;27;104794;-85
2021/03/01 09:38:43;;;;;;;9.60;8.57;;;;;;;10.39;58.98;100152.06;5095549;27;103892;-85
2021/03/01 09:41:12;;;;;;;13.07;9.80;;;;;;;9.41;59.75;100156.69;5091924;27;102662;-83
2021/03/01 09:43:42;;;;;;;10.43;9.33;;;;;;;10.45;57.43;100149.13;5090525;27;103766;-83
2021/03/01 09:46:10;;;;;;;11.77;9.83;;;;;;;9.51;58.49;100163.28;5098083;27;104233;-83
2021/03/01 09:48:42;;;;;;;11.40;9.87;;;;;;;9.06;58.85;100154.75;5106971;27;103121;-83
2021/03/01 09:51:10;;;;;;;13.80;10.10;;;;;;;7.97;60.60;100153.97;5080339;27;103162;-83
2021/03/01 09:53:38;;;;;;;10.23;8.83;;;;;;;8.54;59.74;100146.41;5101178;27;104426;-82
2021/03/01 09:56:05;;;;;;;13.50;9.27;;;;;;;8.84;60.22;100138.13;5097604;27;103300;-81
2021/03/01 09:58:35;;;;;;;14.10;8.20;;;;;;;9.29;55.38;100141.41;5097952;27;102878;-82
2021/03/01 10:01:07;;;;;;;8.23;7.27;;;;;;;10.28;56.04;100129.72;5097986;27;103210;-84
2021/03/01 10:03:37;;;;;;;12.50;9.00;;;;;;;10.33;53.99;100122.47;5086976;27;108424;-83
2021/03/01 10:06:05;;;;;;;12.60;8.83;;;;;;;8.63;55.87;100140.75;5096848;27;103817;-84
2021/03/01 10:08:33;;;;;;;9.63;8.70;;;;;;;8.89;57.98;100137.03;5095432;27;103192;-84
2021/03/01 10:11:00;;;;;;;11.23;10.03;;;;;;;9.47;55.54;100132.66;5099209;27;103349;-83
2021/03/01 10:13:29;;;;;;;10.00;8.93;;;;;;;9.70;56.68;100137.75;5101530;27;103549;-86
2021/03/01 10:15:58;;;;;;;10.83;8.83;;;;;;;10.55;55.23;100131.03;5097993;27;104256;-84
2021/03/01 10:18:31;;;;;;;11.40;8.90;;;;;;;10.72;53.59;100120.44;5100637;27;102753;-84
2021/03/01 10:21:04;;;;;;;9.90;8.90;;;;;;;10.73;51.77;100124.81;5101631;27;102871;-84
2021/03/01 10:23:34;;;;;;;10.07;8.33;;;;;;;10.16;51.76;100125.06;5099839;27;103672;-85
2021/03/01 10:26:17;;;;;;;9.60;7.73;;;;;;;10.64;51.34;100117.34;5083366;27;106683;-87
2021/03/01 10:28:51;;;;;;;9.70;7.57;;;;;;;11.40;49.84;100110.72;5077776;27;103271;-87
2021/03/01 10:31:21;;;;;;;10.10;8.50;;;;;;;10.18;50.11;100117.91;5095102;27;103090;-84
2021/03/01 10:34:00;;;;;;;8.60;7.20;;;;;;;10.48;50.58;100122.56;5081640;27;106802;-84
2021/03/01 10:36:32;;;;;;;9.87;8.87;;;;;;;11.03;51.80;100119.75;5083984;27;103235;-85
2021/03/01 10:39:08;;;;;;;9.67;8.63;;;;;;;10.65;49.96;100112.91;5089502;27;103134;-83
2021/03/01 10:41:41;;;;;;;9.07;8.13;;;;;;;10.81;51.28;100113.84;5083659;27;103126;-82
2021/03/01 10:44:09;;;;;;;8.67;7.77;;;;;;;11.64;49.84;100112.06;5108006;27;103287;-83
2021/03/01 10:46:46;;;;;;;8.03;7.23;;;;;;;11.91;49.47;100101.75;5107676;27;104189;-83
2021/03/01 10:49:24;;;;;;;10.07;9.07;;;;;;;10.97;49.22;100105.06;5107490;27;102990;-83
2021/03/01 10:51:52;;;;;;;9.87;8.50;;;;;;;10.52;51.09;100104.75;5097133;27;103131;-83
2021/03/01 10:54:20;;;;;;;9.37;8.47;;;;;;;10.98;51.80;100103.25;5083633;27;105414;-85
2021/03/01 10:56:48;;;;;;;12.50;8.23;;;;;;;11.22;51.26;100109.06;5096952;27;105952;-83
2021/03/01 10:59:16;;;;;;;9.70;7.40;;;;;;;11.71;49.40;100102.84;5108227;27;102882;-83
2021/03/01 11:01:46;;;;;;;10.93;8.83;;;;;;;11.49;49.97;100092.56;5100281;27;103319;-83
2021/03/01 11:04:18;;;;;;;11.87;8.57;;;;;;;11.09;50.11;100082.38;5090066;27;105373;-84
2021/03/01 11:06:46;;;;;;;9.70;8.70;;;;;;;11.51;50.33;100089.81;5093514;27;103904;-83
2021/03/01 11:09:13;;;;;;;10.47;8.27;;;;;;;11.38;50.21;100094.06;5077246;27;103217;-83
2021/03/01 11:11:42;;;;;;;10.10;8.83;;;;;;;11.04;51.57;100085.28;5105916;27;103154;-83
2021/03/01 11:14:10;;;;;;;9.60;8.60;;;;;;;11.43;50.62;100081.44;5103097;27;104519;-85
2021/03/01 11:16:38;;;;;;;10.33;9.00;;;;;;;11.89;49.85;100075.38;5095780;27;103615;-84
2021/03/01 11:19:08;;;;;;;9.10;8.00;;;;;;;12.29;49.27;100070.47;5080475;27;103236;-80
2021/03/01 11:21:36;;;;;;;8.07;7.27;;;;;;;12.89;49.00;100071.28;5095552;27;102910;-88
2021/03/01 11:24:05;;;;;;;9.40;7.60;;;;;;;12.35;46.91;100067.47;5060730;27;105500;-84
2021/03/01 11:26:32;;;;;;;9.17;8.13;;;;;;;12.73;46.43;100066.06;5097218;27;103211;-84